sensor_id;sensor_type;location;lat;lon;timestamp;pressure;altitude;pressure_sealevel;temperature;humidity
30856;BME280;17570;0.000;0.000;2024-03-17T00:00:15;97257.69;;;15.93;43.13
30856;BME280;17570;0.000;0.000;2024-03-17T00:02:44;97258.67;;;15.92;43.20
30856;BME280;17570;0.000;0.000;2024-03-17T00:05:13;97259.65;;;15.91;43.72
30856;BME280;17570;0.000;0.000;2024-03-17T00:07:41;97260.62;;;15.90;43.68
30856;BME280;17570;0.000;0.000;2024-03-17T00:10:09;97264.28;;;15.97;43.60
30856;BME280;17570;0.000;0.000;2024-03-17T00:12:37;97262.80;;;15.95;43.27
30856;BME280;17570;0.000;0.000;2024-03-17T00:15:05;97257.16;;;15.90;43.36
30856;BME280;17570;0.000;0.000;2024-03-17T00:17:34;97254.86;;;15.87;43.61
30856;BME280;17570;0.000;0.000;2024-03-17T00:20:02;97259.48;;;15.93;43.37
30856;BME280;17570;0.000;0.000;2024-03-17T00:22:31;97256.50;;;15.88;43.60
30856;BME280;17570;0.000;0.000;2024-03-17T00:25:00;97254.32;;;15.83;43.69
30856;BME280;17570;0.000;0.000;2024-03-17T00:27:27;97251.05;;;15.81;43.45
30856;BME280;17570;0.000;0.000;2024-03-17T00:29:55;97251.61;;;15.75;43.67
30856;BME280;17570;0.000;0.000;2024-03-17T00:32:23;97249.81;;;15.75;43.76
30856;BME280;17570;0.000;0.000;2024-03-17T00:34:50;97248.02;;;15.76;43.94
30856;BME280;17570;0.000;0.000;2024-03-17T00:37:18;97243.91;;;15.73;44.00
30856;BME280;17570;0.000;0.000;2024-03-17T00:39:45;97244.20;;;15.70;43.82
30856;BME280;17570;0.000;0.000;2024-03-17T00:42:12;97241.52;;;15.80;43.44
30856;BME280;17570;0.000;0.000;2024-03-17T00:44:40;97247.06;;;15.77;42.86
30856;BME280;17570;0.000;0.000;2024-03-17T00:47:08;97239.12;;;15.69;43.13
30856;BME280;17570;0.000;0.000;2024-03-17T00:49:35;97242.02;;;15.66;43.30
30856;BME280;17570;0.000;0.000;2024-03-17T00:52:03;97249.77;;;15.58;43.65
30856;BME280;17570;0.000;0.000;2024-03-17T00:54:30;97250.33;;;15.51;43.59
30856;BME280;17570;0.000;0.000;2024-03-17T00:56:58;97257.08;;;15.54;43.34
30856;BME280;17570;0.000;0.000;2024-03-17T00:59:26;97255.88;;;15.48;43.54
30856;BME280;17570;0.000;0.000;2024-03-17T01:01:54;97256.82;;;15.47;43.63
30856;BME280;17570;0.000;0.000;2024-03-17T01:04:21;97255.18;;;15.46;43.28
30856;BME280;17570;0.000;0.000;2024-03-17T01:06:49;97259.20;;;15.41;43.59
30856;BME280;17570;0.000;0.000;2024-03-17T01:09:16;97255.77;;;15.40;43.17
30856;BME280;17570;0.000;0.000;2024-03-17T01:11:44;97252.84;;;15.43;43.23
30856;BME280;17570;0.000;0.000;2024-03-17T01:14:12;97254.56;;;15.35;43.43
30856;BME280;17570;0.000;0.000;2024-03-17T01:16:40;97247.66;;;15.34;43.57
30856;BME280;17570;0.000;0.000;2024-03-17T01:19:07;97260.23;;;15.30;43.50
30856;BME280;17570;0.000;0.000;2024-03-17T01:21:34;97260.23;;;15.30;43.34
30856;BME280;17570;0.000;0.000;2024-03-17T01:24:02;97260.66;;;15.25;43.54
30856;BME280;17570;0.000;0.000;2024-03-17T01:26:30;97257.66;;;15.20;43.81
30856;BME280;17570;0.000;0.000;2024-03-17T01:28:57;97257.38;;;15.14;44.04
30856;BME280;17570;0.000;0.000;2024-03-17T01:31:24;97259.21;;;15.03;44.23
30856;BME280;17570;0.000;0.000;2024-03-17T01:33:52;97249.33;;;14.97;44.31
30856;BME280;17570;0.000;0.000;2024-03-17T01:36:19;97260.19;;;15.02;44.19
30856;BME280;17570;0.000;0.000;2024-03-17T01:38:47;97256.87;;;15.00;44.13
30856;BME280;17570;0.000;0.000;2024-03-17T01:41:14;97256.98;;;15.09;44.34
30856;BME280;17570;0.000;0.000;2024-03-17T01:43:42;97256.20;;;14.98;44.38
30856;BME280;17570;0.000;0.000;2024-03-17T01:46:11;97263.65;;;14.93;44.64
30856;BME280;17570;0.000;0.000;2024-03-17T01:48:39;97256.36;;;14.97;44.63
30856;BME280;17570;0.000;0.000;2024-03-17T01:51:07;97256.20;;;14.98;44.42
30856;BME280;17570;0.000;0.000;2024-03-17T01:53:41;97260.61;;;14.98;44.37
30856;BME280;17570;0.000;0.000;2024-03-17T01:56:05;97264.20;;;14.97;44.55
30856;BME280;17570;0.000;0.000;2024-03-17T01:58:34;97261.00;;;15.03;44.64
30856;BME280;17570;0.000;0.000;2024-03-17T02:01:03;97265.02;;;14.97;44.32
30856;BME280;17570;0.000;0.000;2024-03-17T02:03:31;97265.56;;;14.91;44.52
30856;BME280;17570;0.000;0.000;2024-03-17T02:05:58;97261.58;;;14.87;44.83
30856;BME280;17570;0.000;0.000;2024-03-17T02:08:26;97262.41;;;14.97;44.52
30856;BME280;17570;0.000;0.000;2024-03-17T02:10:54;97261.70;;;14.95;44.52
30856;BME280;17570;0.000;0.000;2024-03-17T02:13:21;97263.89;;;15.00;44.30
30856;BME280;17570;0.000;0.000;2024-03-17T02:15:49;97263.50;;;14.95;44.33
30856;BME280;17570;0.000;0.000;2024-03-17T02:18:16;97258.27;;;14.95;44.47
30856;BME280;17570;0.000;0.000;2024-03-17T02:20:45;97261.70;;;14.95;44.51
30856;BME280;17570;0.000;0.000;2024-03-17T02:23:27;97261.44;;;14.98;44.38
30856;BME280;17570;0.000;0.000;2024-03-17T02:25:55;97264.20;;;14.87;44.70
30856;BME280;17570;0.000;0.000;2024-03-17T02:28:22;97258.70;;;14.90;44.70
30856;BME280;17570;0.000;0.000;2024-03-17T02:30:50;97258.42;;;14.93;44.55
30856;BME280;17570;0.000;0.000;2024-03-17T02:33:17;97260.34;;;14.91;44.62
30856;BME280;17570;0.000;0.000;2024-03-17T02:35:46;97258.12;;;14.96;44.68
30856;BME280;17570;0.000;0.000;2024-03-17T02:38:16;97261.03;;;14.93;44.47
30856;BME280;17570;0.000;0.000;2024-03-17T02:40:44;97255.81;;;14.93;44.50
30856;BME280;17570;0.000;0.000;2024-03-17T02:43:11;97256.78;;;14.92;44.46
30856;BME280;17570;0.000;0.000;2024-03-17T02:45:39;97256.78;;;14.92;44.25
30856;BME280;17570;0.000;0.000;2024-03-17T02:48:06;97252.38;;;14.93;44.23
30856;BME280;17570;0.000;0.000;2024-03-17T02:50:34;97260.22;;;14.93;44.04
30856;BME280;17570;0.000;0.000;2024-03-17T02:53:01;97253.05;;;14.95;44.00
30856;BME280;17570;0.000;0.000;2024-03-17T02:55:29;97257.20;;;14.88;44.12
30856;BME280;17570;0.000;0.000;2024-03-17T02:57:57;97249.91;;;14.82;44.43
30856;BME280;17570;0.000;0.000;2024-03-17T03:00:24;97260.36;;;14.82;44.62
30856;BME280;17570;0.000;0.000;2024-03-17T03:02:52;97253.07;;;14.85;44.56
30856;BME280;17570;0.000;0.000;2024-03-17T03:05:19;97244.66;;;14.91;44.62
30856;BME280;17570;0.000;0.000;2024-03-17T03:07:47;97247.97;;;14.93;44.32
30856;BME280;17570;0.000;0.000;2024-03-17T03:10:14;97248.94;;;14.92;44.27
30856;BME280;17570;0.000;0.000;2024-03-17T03:12:42;97251.98;;;14.88;44.37
30856;BME280;17570;0.000;0.000;2024-03-17T03:15:09;97249.37;;;14.88;44.39
30856;BME280;17570;0.000;0.000;2024-03-17T03:17:37;97252.49;;;14.91;44.30
30856;BME280;17570;0.000;0.000;2024-03-17T03:20:04;97242.19;;;14.90;44.26
30856;BME280;17570;0.000;0.000;2024-03-17T03:22:35;97251.55;;;14.92;44.50
30856;BME280;17570;0.000;0.000;2024-03-17T03:25:03;97251.41;;;14.94;44.36
30856;BME280;17570;0.000;0.000;2024-03-17T03:27:30;97255.23;;;14.99;43.71
30856;BME280;17570;0.000;0.000;2024-03-17T03:29:58;97250.82;;;15.00;43.56
30856;BME280;17570;0.000;0.000;2024-03-17T03:32:26;97247.66;;;14.96;44.16
30856;BME280;17570;0.000;0.000;2024-03-17T03:34:53;97248.24;;;14.90;44.33
30856;BME280;17570;0.000;0.000;2024-03-17T03:37:21;97256.23;;;14.89;44.27
30856;BME280;17570;0.000;0.000;2024-03-17T03:39:50;97249.64;;;14.85;44.56
30856;BME280;17570;0.000;0.000;2024-03-17T03:42:18;97254.71;;;14.86;44.69
30856;BME280;17570;0.000;0.000;2024-03-17T03:44:46;97255.02;;;14.83;44.75
30856;BME280;17570;0.000;0.000;2024-03-17T03:47:15;97253.73;;;14.87;44.58
30856;BME280;17570;0.000;0.000;2024-03-17T03:49:42;97263.67;;;14.84;44.74
30856;BME280;17570;0.000;0.000;2024-03-17T03:52:11;97269.84;;;14.83;45.04
30856;BME280;17570;0.000;0.000;2024-03-17T03:54:39;97268.08;;;14.83;44.75
30856;BME280;17570;0.000;0.000;2024-03-17T03:57:06;97258.97;;;14.87;44.58
30856;BME280;17570;0.000;0.000;2024-03-17T03:59:34;97260.91;;;14.85;44.62
30856;BME280;17570;0.000;0.000;2024-03-17T04:02:01;97260.91;;;14.85;44.88
30856;BME280;17570;0.000;0.000;2024-03-17T04:04:29;97266.96;;;14.86;44.65
30856;BME280;17570;0.000;0.000;2024-03-17T04:06:57;97269.30;;;14.89;44.56
30856;BME280;17570;0.000;0.000;2024-03-17T04:09:24;97267.51;;;14.89;44.62
30856;BME280;17570;0.000;0.000;2024-03-17T04:11:52;97261.58;;;14.87;44.56
30856;BME280;17570;0.000;0.000;2024-03-17T04:14:19;97261.58;;;14.87;44.72
30856;BME280;17570;0.000;0.000;2024-03-17T04:16:47;97260.76;;;14.87;44.82
30856;BME280;17570;0.000;0.000;2024-03-17T04:19:14;97267.78;;;14.86;45.13
30856;BME280;17570;0.000;0.000;2024-03-17T04:21:43;97259.27;;;14.84;45.10
30856;BME280;17570;0.000;0.000;2024-03-17T04:24:10;97262.28;;;14.89;44.63
30856;BME280;17570;0.000;0.000;2024-03-17T04:26:38;97269.42;;;14.87;44.78
30856;BME280;17570;0.000;0.000;2024-03-17T04:29:05;97272.76;;;14.79;45.17
30856;BME280;17570;0.000;0.000;2024-03-17T04:31:33;97278.95;;;14.78;44.89
30856;BME280;17570;0.000;0.000;2024-03-17T04:34:00;97280.30;;;14.83;45.08
30856;BME280;17570;0.000;0.000;2024-03-17T04:36:28;97282.64;;;14.86;45.14
30856;BME280;17570;0.000;0.000;2024-03-17T04:38:55;97282.09;;;14.82;45.04
30856;BME280;17570;0.000;0.000;2024-03-17T04:41:25;97284.85;;;14.80;45.10
30856;BME280;17570;0.000;0.000;2024-03-17T04:43:52;97290.23;;;14.79;45.16
30856;BME280;17570;0.000;0.000;2024-03-17T04:46:20;97295.58;;;14.77;45.08
30856;BME280;17570;0.000;0.000;2024-03-17T04:48:47;97292.54;;;14.82;44.98
30856;BME280;17570;0.000;0.000;2024-03-17T04:51:15;97295.98;;;14.83;45.21
30856;BME280;17570;0.000;0.000;2024-03-17T04:53:43;97298.34;;;14.76;45.03
30856;BME280;17570;0.000;0.000;2024-03-17T04:56:10;97302.33;;;14.80;45.07
30856;BME280;17570;0.000;0.000;2024-03-17T04:58:38;97297.77;;;14.82;45.03
30856;BME280;17570;0.000;0.000;2024-03-17T05:01:06;97300.12;;;14.75;44.81
30856;BME280;17570;0.000;0.000;2024-03-17T05:03:34;97301.77;;;14.76;44.91
30856;BME280;17570;0.000;0.000;2024-03-17T05:06:04;97306.17;;;14.76;45.11
30856;BME280;17570;0.000;0.000;2024-03-17T05:08:33;97313.87;;;14.77;45.14
30856;BME280;17570;0.000;0.000;2024-03-17T05:11:05;97304.80;;;14.72;45.22
30856;BME280;17570;0.000;0.000;2024-03-17T05:13:33;97311.55;;;14.74;45.53
30856;BME280;17570;0.000;0.000;2024-03-17T05:16:01;97310.73;;;14.74;45.32
30856;BME280;17570;0.000;0.000;2024-03-17T05:18:31;97315.81;;;14.75;45.52
30856;BME280;17570;0.000;0.000;2024-03-17T05:21:02;97314.02;;;14.76;45.54
30856;BME280;17570;0.000;0.000;2024-03-17T05:23:31;97315.12;;;14.83;45.34
30856;BME280;17570;0.000;0.000;2024-03-17T05:25:59;97311.12;;;14.89;45.37
30856;BME280;17570;0.000;0.000;2024-03-17T05:28:28;97316.20;;;14.90;45.36
30856;BME280;17570;0.000;0.000;2024-03-17T05:30:56;97328.02;;;14.94;45.11
30856;BME280;17570;0.000;0.000;2024-03-17T05:33:23;97326.23;;;14.95;45.00
30856;BME280;17570;0.000;0.000;2024-03-17T05:35:57;97326.08;;;14.96;45.06
30856;BME280;17570;0.000;0.000;2024-03-17T05:38:21;97324.17;;;14.98;45.23
30856;BME280;17570;0.000;0.000;2024-03-17T05:41:03;97326.52;;;15.01;45.30
30856;BME280;17570;0.000;0.000;2024-03-17T05:43:28;97325.23;;;15.05;45.16
30856;BME280;17570;0.000;0.000;2024-03-17T05:45:57;97329.39;;;14.98;45.47
30856;BME280;17570;0.000;0.000;2024-03-17T05:48:25;97329.38;;;15.08;45.31
30856;BME280;17570;0.000;0.000;2024-03-17T05:50:52;97323.72;;;15.13;45.12
30856;BME280;17570;0.000;0.000;2024-03-17T05:53:20;97325.77;;;15.19;45.29
30856;BME280;17570;0.000;0.000;2024-03-17T05:55:50;97326.16;;;15.24;45.36
30856;BME280;17570;0.000;0.000;2024-03-17T05:58:17;97321.75;;;15.24;45.08
30856;BME280;17570;0.000;0.000;2024-03-17T06:00:45;97330.02;;;15.29;44.98
30856;BME280;17570;0.000;0.000;2024-03-17T06:03:12;97328.47;;;15.37;44.84
30856;BME280;17570;0.000;0.000;2024-03-17T06:05:40;97331.47;;;15.42;44.75
30856;BME280;17570;0.000;0.000;2024-03-17T06:08:08;97335.45;;;15.46;44.73
30856;BME280;17570;0.000;0.000;2024-03-17T06:10:38;97335.03;;;15.50;44.51
30856;BME280;17570;0.000;0.000;2024-03-17T06:13:08;97333.63;;;15.56;44.44
30856;BME280;17570;0.000;0.000;2024-03-17T06:15:37;97337.45;;;15.62;44.40
30856;BME280;17570;0.000;0.000;2024-03-17T06:18:05;97334.98;;;15.60;44.41
30856;BME280;17570;0.000;0.000;2024-03-17T06:20:35;97339.55;;;15.68;44.19
30856;BME280;17570;0.000;0.000;2024-03-17T06:23:02;97337.44;;;15.71;44.25
30856;BME280;17570;0.000;0.000;2024-03-17T06:25:30;97334.38;;;15.76;44.13
30856;BME280;17570;0.000;0.000;2024-03-17T06:27:57;97336.44;;;15.82;44.04
30856;BME280;17570;0.000;0.000;2024-03-17T06:30:27;97343.55;;;15.90;43.90
30856;BME280;17570;0.000;0.000;2024-03-17T06:32:54;97342.16;;;15.95;43.72
30856;BME280;17570;0.000;0.000;2024-03-17T06:35:21;97340.59;;;16.02;43.66
30856;BME280;17570;0.000;0.000;2024-03-17T06:37:51;97347.19;;;16.06;43.32
30856;BME280;17570;0.000;0.000;2024-03-17T06:40:18;97344.79;;;16.13;43.27
30856;BME280;17570;0.000;0.000;2024-03-17T06:42:46;97358.42;;;16.17;43.15
30856;BME280;17570;0.000;0.000;2024-03-17T06:45:13;97358.67;;;16.23;43.58
30856;BME280;17570;0.000;0.000;2024-03-17T06:47:42;97347.88;;;16.26;43.01
30856;BME280;17570;0.000;0.000;2024-03-17T06:50:10;97343.88;;;16.32;42.95
30856;BME280;17570;0.000;0.000;2024-03-17T06:52:38;97353.05;;;16.36;42.74
30856;BME280;17570;0.000;0.000;2024-03-17T06:55:05;97353.59;;;16.40;42.73
30856;BME280;17570;0.000;0.000;2024-03-17T06:57:34;97357.56;;;16.44;42.63
30856;BME280;17570;0.000;0.000;2024-03-17T07:00:06;97359.58;;;16.50;42.57
30856;BME280;17570;0.000;0.000;2024-03-17T07:02:35;97357.94;;;16.49;42.68
30856;BME280;17570;0.000;0.000;2024-03-17T07:05:02;97358.31;;;16.54;42.60
30856;BME280;17570;0.000;0.000;2024-03-17T07:07:30;97358.39;;;16.62;42.24
30856;BME280;17570;0.000;0.000;2024-03-17T07:09:57;97349.70;;;16.62;42.47
30856;BME280;17570;0.000;0.000;2024-03-17T07:12:25;97364.53;;;16.71;42.14
30856;BME280;17570;0.000;0.000;2024-03-17T07:14:53;97361.22;;;16.69;42.16
30856;BME280;17570;0.000;0.000;2024-03-17T07:17:20;97365.36;;;16.71;42.16
30856;BME280;17570;0.000;0.000;2024-03-17T07:19:49;97359.69;;;16.76;41.94
30856;BME280;17570;0.000;0.000;2024-03-17T07:22:17;97359.08;;;16.82;41.78
30856;BME280;17570;0.000;0.000;2024-03-17T07:24:44;97357.64;;;16.88;41.62
30856;BME280;17570;0.000;0.000;2024-03-17T07:27:12;97363.13;;;16.94;41.79
30856;BME280;17570;0.000;0.000;2024-03-17T07:29:41;97350.58;;;17.06;41.75
30856;BME280;17570;0.000;0.000;2024-03-17T07:32:08;97348.84;;;17.15;41.64
30856;BME280;17570;0.000;0.000;2024-03-17T07:34:35;97345.45;;;17.22;40.90
30856;BME280;17570;0.000;0.000;2024-03-17T07:37:04;97339.28;;;17.31;40.87
30856;BME280;17570;0.000;0.000;2024-03-17T07:39:31;97343.73;;;17.39;41.00
30856;BME280;17570;0.000;0.000;2024-03-17T07:41:59;97333.30;;;17.47;40.80
30856;BME280;17570;0.000;0.000;2024-03-17T07:44:28;97341.22;;;17.55;40.64
30856;BME280;17570;0.000;0.000;2024-03-17T07:46:57;97340.11;;;17.66;40.29
30856;BME280;17570;0.000;0.000;2024-03-17T07:49:24;97343.09;;;17.71;39.76
30856;BME280;17570;0.000;0.000;2024-03-17T07:51:52;97331.53;;;17.82;38.93
30856;BME280;17570;0.000;0.000;2024-03-17T07:54:20;97335.19;;;17.97;38.42
30856;BME280;17570;0.000;0.000;2024-03-17T07:56:48;97339.31;;;18.08;38.42
30856;BME280;17570;0.000;0.000;2024-03-17T07:59:15;97330.67;;;18.24;38.11
30856;BME280;17570;0.000;0.000;2024-03-17T08:01:44;97322.47;;;18.35;37.68
30856;BME280;17570;0.000;0.000;2024-03-17T08:04:12;97329.55;;;18.51;37.63
30856;BME280;17570;0.000;0.000;2024-03-17T08:06:39;97324.03;;;18.70;38.12
30856;BME280;17570;0.000;0.000;2024-03-17T08:09:10;97323.19;;;18.86;37.64
30856;BME280;17570;0.000;0.000;2024-03-17T08:11:38;97316.45;;;19.00;38.29
30856;BME280;17570;0.000;0.000;2024-03-17T08:14:07;97313.81;;;19.08;38.14
30856;BME280;17570;0.000;0.000;2024-03-17T08:16:35;97303.42;;;19.15;38.03
30856;BME280;17570;0.000;0.000;2024-03-17T08:19:02;97307.36;;;19.27;38.62
30856;BME280;17570;0.000;0.000;2024-03-17T08:21:30;97306.98;;;19.38;37.34
30856;BME280;17570;0.000;0.000;2024-03-17T08:23:58;97304.02;;;19.49;35.98
30856;BME280;17570;0.000;0.000;2024-03-17T08:26:25;97300.84;;;19.62;35.72
30856;BME280;17570;0.000;0.000;2024-03-17T08:28:53;97303.28;;;19.72;35.38
30856;BME280;17570;0.000;0.000;2024-03-17T08:31:20;97301.95;;;19.76;34.12
30856;BME280;17570;0.000;0.000;2024-03-17T08:33:48;97303.25;;;19.80;34.42
30856;BME280;17570;0.000;0.000;2024-03-17T08:36:16;97300.92;;;19.85;34.23
30856;BME280;17570;0.000;0.000;2024-03-17T08:38:45;97301.41;;;19.88;33.65
30856;BME280;17570;0.000;0.000;2024-03-17T08:41:14;97305.52;;;19.91;33.60
30856;BME280;17570;0.000;0.000;2024-03-17T08:43:42;97308.16;;;19.91;33.66
30856;BME280;17570;0.000;0.000;2024-03-17T08:46:10;97306.94;;;20.02;34.26
30856;BME280;17570;0.000;0.000;2024-03-17T08:48:40;97306.91;;;20.10;34.98
30856;BME280;17570;0.000;0.000;2024-03-17T08:51:09;97299.16;;;20.08;34.63
30856;BME280;17570;0.000;0.000;2024-03-17T08:53:37;97295.88;;;20.06;35.52
30856;BME280;17570;0.000;0.000;2024-03-17T08:56:05;97295.41;;;20.03;33.69
30856;BME280;17570;0.000;0.000;2024-03-17T08:58:33;97289.50;;;20.01;34.46
30856;BME280;17570;0.000;0.000;2024-03-17T09:01:04;97287.68;;;20.01;33.90
30856;BME280;17570;0.000;0.000;2024-03-17T09:03:31;97286.02;;;20.00;34.02
30856;BME280;17570;0.000;0.000;2024-03-17T09:05:59;97279.11;;;19.99;33.10
30856;BME280;17570;0.000;0.000;2024-03-17T09:08:27;97271.05;;;20.01;32.50
30856;BME280;17570;0.000;0.000;2024-03-17T09:10:54;97271.80;;;20.09;32.29
30856;BME280;17570;0.000;0.000;2024-03-17T09:13:23;97269.94;;;20.18;31.95
30856;BME280;17570;0.000;0.000;2024-03-17T09:15:56;97264.80;;;20.25;31.48
30856;BME280;17570;0.000;0.000;2024-03-17T09:18:24;97263.56;;;20.35;32.62
30856;BME280;17570;0.000;0.000;2024-03-17T09:21:10;97257.02;;;20.54;31.65
30856;BME280;17570;0.000;0.000;2024-03-17T09:23:24;97250.77;;;20.70;30.21
30856;BME280;17570;0.000;0.000;2024-03-17T09:26:02;97249.89;;;20.78;30.61
30856;BME280;17570;0.000;0.000;2024-03-17T09:28:28;97256.10;;;20.85;30.32
30856;BME280;17570;0.000;0.000;2024-03-17T09:30:56;97250.09;;;20.91;30.35
30856;BME280;17570;0.000;0.000;2024-03-17T09:33:25;97250.66;;;21.01;30.14
30856;BME280;17570;0.000;0.000;2024-03-17T09:35:53;97245.76;;;21.13;30.48
30856;BME280;17570;0.000;0.000;2024-03-17T09:38:21;97248.13;;;21.23;30.21
30856;BME280;17570;0.000;0.000;2024-03-17T09:40:49;97251.53;;;21.31;28.82
30856;BME280;17570;0.000;0.000;2024-03-17T09:43:19;97243.33;;;21.41;28.34
30856;BME280;17570;0.000;0.000;2024-03-17T09:45:47;97241.66;;;21.40;29.02
30856;BME280;17570;0.000;0.000;2024-03-17T09:48:16;97236.69;;;21.45;28.40
30856;BME280;17570;0.000;0.000;2024-03-17T09:50:53;97233.92;;;21.53;29.61
30856;BME280;17570;0.000;0.000;2024-03-17T09:53:28;97238.91;;;21.63;29.16
30856;BME280;17570;0.000;0.000;2024-03-17T09:56:39;97227.42;;;21.71;29.44
30856;BME280;17570;0.000;0.000;2024-03-17T09:58:22;97236.13;;;21.86;29.76
30856;BME280;17570;0.000;0.000;2024-03-17T10:00:50;97230.80;;;22.01;30.49
30856;BME280;17570;0.000;0.000;2024-03-17T10:06:03;97240.41;;;22.23;29.30
30856;BME280;17570;0.000;0.000;2024-03-17T10:08:31;97240.00;;;22.20;29.63
30856;BME280;17570;0.000;0.000;2024-03-17T10:11:00;97240.50;;;22.30;28.62
30856;BME280;17570;0.000;0.000;2024-03-17T10:13:28;97235.25;;;22.36;28.60
30856;BME280;17570;0.000;0.000;2024-03-17T10:15:55;97239.36;;;22.39;27.26
30856;BME280;17570;0.000;0.000;2024-03-17T10:18:23;97236.14;;;22.44;27.49
